createdAt,value
2017-06-20T00:02:06.205Z,15.45
2017-06-20T00:04:34.560Z,15.38
2017-06-20T00:07:02.890Z,15.33
2017-06-20T00:09:31.337Z,15.30
2017-06-20T00:11:59.674Z,15.21
2017-06-20T00:14:28.092Z,15.15
2017-06-20T00:16:56.449Z,15.15
2017-06-20T00:19:24.821Z,15.09
2017-06-20T00:21:53.175Z,15.06
2017-06-20T00:24:21.507Z,15.02
2017-06-20T00:26:49.860Z,15.00
2017-06-20T00:29:18.186Z,15.00
2017-06-20T00:31:46.544Z,14.96
2017-06-20T00:34:14.873Z,14.96
2017-06-20T00:36:43.205Z,14.93
2017-06-20T00:39:11.542Z,14.90
2017-06-20T00:41:39.870Z,14.84
2017-06-20T00:44:08.197Z,14.77
2017-06-20T00:46:36.586Z,14.74
2017-06-20T00:49:04.925Z,14.70
2017-06-20T00:51:33.282Z,14.69
2017-06-20T00:54:01.626Z,14.70
2017-06-20T00:56:29.957Z,14.69
2017-06-20T00:58:58.290Z,14.65
2017-06-20T01:01:26.687Z,14.59
2017-06-20T01:03:54.990Z,14.52
2017-06-20T01:06:23.334Z,14.50
2017-06-20T01:08:51.664Z,14.44
2017-06-20T01:11:20.031Z,14.37
2017-06-20T01:13:48.361Z,14.32
2017-06-20T01:16:16.717Z,14.31
2017-06-20T01:18:45.057Z,14.29
2017-06-20T01:21:13.427Z,14.26
2017-06-20T01:23:41.875Z,14.25
2017-06-20T01:26:10.209Z,14.21
2017-06-20T01:28:38.553Z,14.21
2017-06-20T01:31:07.031Z,14.20
2017-06-20T01:33:35.340Z,14.21
2017-06-20T01:36:03.683Z,14.19
2017-06-20T01:38:32.001Z,14.21
2017-06-20T01:41:00.330Z,14.14
2017-06-20T01:43:28.662Z,14.08
2017-06-20T01:45:57.120Z,13.98
2017-06-20T01:48:25.452Z,13.95
2017-06-20T01:50:53.776Z,13.92
2017-06-20T01:53:22.119Z,13.90
2017-06-20T01:55:50.468Z,13.82
2017-06-20T01:58:18.817Z,13.76
2017-06-20T02:00:47.192Z,13.74
2017-06-20T02:03:15.609Z,13.73
2017-06-20T02:05:43.945Z,13.74
2017-06-20T02:08:12.318Z,13.72
2017-06-20T02:10:40.671Z,13.69
2017-06-20T02:13:09.023Z,13.65
2017-06-20T02:15:37.354Z,13.61
2017-06-20T02:18:05.686Z,13.58
2017-06-20T02:20:34.033Z,13.52
2017-06-20T02:23:02.357Z,13.48
2017-06-20T02:25:30.710Z,13.47
2017-06-20T02:27:59.057Z,13.46
2017-06-20T02:30:27.393Z,13.48
2017-06-20T02:32:55.770Z,13.43
2017-06-20T02:35:24.146Z,13.39
2017-06-20T02:37:52.466Z,13.40
2017-06-20T02:40:20.845Z,13.39
2017-06-20T02:42:49.178Z,13.34
2017-06-20T02:45:17.559Z,13.32
2017-06-20T02:47:45.894Z,13.26
2017-06-20T02:50:14.266Z,13.29
2017-06-20T02:52:42.598Z,13.26
2017-06-20T02:55:10.960Z,13.24
2017-06-20T02:57:39.355Z,13.27
2017-06-20T03:00:07.723Z,13.23
2017-06-20T03:02:36.075Z,13.18
2017-06-20T03:05:04.495Z,13.18
2017-06-20T03:07:32.810Z,13.16
2017-06-20T03:10:01.154Z,13.24
2017-06-20T03:12:29.487Z,13.21
2017-06-20T03:14:57.825Z,13.26
2017-06-20T03:17:26.158Z,13.24
2017-06-20T03:19:54.489Z,13.22
2017-06-20T03:22:22.828Z,13.26
2017-06-20T03:24:51.218Z,13.31
2017-06-20T03:27:19.544Z,13.38
2017-06-20T03:29:47.893Z,13.40
2017-06-20T03:32:16.242Z,13.41
2017-06-20T03:34:44.672Z,13.44
2017-06-20T03:37:13.017Z,13.51
2017-06-20T03:39:41.357Z,13.52
2017-06-20T03:42:09.692Z,13.55
2017-06-20T03:44:38.024Z,13.58
2017-06-20T03:47:06.360Z,13.59
2017-06-20T03:49:34.708Z,13.60
2017-06-20T03:52:03.060Z,13.63
2017-06-20T03:54:31.412Z,13.67
2017-06-20T03:56:59.746Z,13.74
2017-06-20T03:59:28.081Z,13.82
2017-06-20T04:01:56.429Z,13.93
2017-06-20T04:04:24.762Z,14.03
2017-06-20T04:06:53.109Z,14.13
2017-06-20T04:09:21.436Z,14.26
2017-06-20T04:11:49.766Z,14.34
2017-06-20T04:14:18.127Z,14.46
2017-06-20T04:16:46.489Z,14.60
2017-06-20T04:19:14.823Z,14.73
2017-06-20T04:21:47.096Z,14.84
2017-06-20T04:24:15.429Z,14.98
2017-06-20T04:26:43.767Z,15.11
2017-06-20T04:29:12.125Z,15.20
2017-06-20T04:31:40.470Z,15.36
2017-06-20T04:34:08.982Z,15.50
2017-06-20T04:36:37.444Z,15.65
2017-06-20T04:39:05.791Z,15.83
2017-06-20T04:41:34.126Z,16.01
2017-06-20T04:44:02.464Z,16.16
2017-06-20T04:46:30.793Z,16.33
2017-06-20T04:48:59.205Z,16.55
2017-06-20T04:51:27.586Z,16.72
2017-06-20T04:53:55.945Z,16.87
2017-06-20T04:56:24.328Z,16.94
2017-06-20T04:58:52.685Z,17.13
2017-06-20T05:01:21.012Z,17.31
2017-06-20T05:03:49.378Z,17.43
2017-06-20T05:06:17.713Z,17.53
2017-06-20T05:08:46.093Z,17.74
2017-06-20T05:11:14.443Z,17.85
2017-06-20T05:13:42.847Z,18.00
2017-06-20T05:16:11.157Z,18.18
2017-06-20T05:18:39.520Z,18.23
2017-06-20T05:21:07.930Z,18.42
2017-06-20T05:23:36.242Z,18.50
2017-06-20T05:26:04.675Z,18.68
2017-06-20T05:28:33.003Z,18.81
2017-06-20T05:31:02.169Z,18.87
2017-06-20T05:33:30.501Z,19.03
2017-06-20T05:35:58.842Z,19.22
2017-06-20T05:38:27.165Z,19.32
2017-06-20T05:40:55.504Z,19.45
2017-06-20T05:43:23.851Z,19.60
2017-06-20T05:45:52.169Z,19.74
2017-06-20T05:48:20.533Z,19.83
2017-06-20T05:50:48.865Z,19.87
2017-06-20T05:53:17.195Z,19.94
2017-06-20T05:55:45.535Z,20.12
2017-06-20T05:58:13.885Z,20.07
2017-06-20T06:00:42.229Z,20.20
2017-06-20T06:03:10.610Z,20.42
2017-06-20T06:05:38.966Z,20.40
2017-06-20T06:08:07.301Z,20.64
2017-06-20T06:10:35.649Z,20.70
2017-06-20T06:13:04.035Z,20.74
2017-06-20T06:15:32.388Z,20.90
2017-06-20T06:18:00.734Z,21.01
2017-06-20T06:20:29.098Z,21.15
2017-06-20T06:22:57.448Z,21.30
2017-06-20T06:25:26.485Z,21.39
2017-06-20T06:27:54.824Z,21.55
2017-06-20T06:30:23.206Z,21.65
2017-06-20T06:32:51.562Z,21.86
2017-06-20T06:35:19.988Z,22.08
2017-06-20T06:37:48.336Z,22.29
2017-06-20T06:40:16.709Z,22.38
2017-06-20T06:42:45.068Z,22.36
2017-06-20T06:45:13.476Z,22.42
2017-06-20T06:47:41.806Z,22.71
2017-06-20T06:50:10.194Z,22.67
2017-06-20T06:52:38.554Z,22.86
2017-06-20T06:55:06.922Z,22.90
2017-06-20T06:57:35.265Z,22.91
2017-06-20T07:00:03.776Z,23.07
2017-06-20T07:02:32.117Z,23.25
2017-06-20T07:05:00.482Z,23.42
2017-06-20T07:07:28.892Z,23.53
2017-06-20T07:09:57.234Z,23.62
2017-06-20T07:12:25.611Z,23.46
2017-06-20T07:14:53.939Z,23.45
2017-06-20T07:17:22.274Z,23.67
2017-06-20T07:19:50.639Z,23.64
2017-06-20T07:22:18.982Z,23.98
2017-06-20T07:24:47.326Z,24.38
2017-06-20T07:27:15.693Z,24.40
2017-06-20T07:29:44.029Z,24.57
2017-06-20T07:32:12.377Z,24.69
2017-06-20T07:34:40.729Z,24.71
2017-06-20T07:37:09.075Z,24.91
2017-06-20T07:39:37.440Z,25.12
2017-06-20T07:42:05.822Z,25.24
2017-06-20T07:44:34.161Z,25.03
2017-06-20T07:47:02.505Z,25.44
2017-06-20T07:49:30.849Z,25.52
2017-06-20T07:51:59.194Z,25.78
2017-06-20T07:54:27.551Z,25.95
2017-06-20T07:56:55.905Z,25.79
2017-06-20T07:59:24.274Z,26.09
2017-06-20T08:01:52.677Z,26.27
2017-06-20T08:04:21.009Z,26.50
2017-06-20T08:06:49.365Z,26.62
2017-06-20T08:09:18.636Z,26.82
2017-06-20T08:11:46.977Z,27.07
2017-06-20T08:14:15.309Z,27.25
2017-06-20T08:16:43.707Z,27.18
2017-06-20T08:19:12.069Z,27.40
2017-06-20T08:21:45.990Z,27.37
2017-06-20T08:24:14.321Z,27.63
2017-06-20T08:26:42.681Z,27.68
2017-06-20T08:29:11.020Z,27.91
2017-06-20T08:31:39.384Z,28.00
2017-06-20T08:34:07.725Z,27.97
2017-06-20T08:36:36.077Z,28.12
2017-06-20T08:39:04.513Z,27.89
2017-06-20T08:41:32.841Z,28.20
2017-06-20T08:44:01.194Z,27.81
2017-06-20T08:46:29.602Z,28.06
2017-06-20T08:48:57.959Z,28.24
2017-06-20T08:51:26.285Z,28.51
2017-06-20T08:53:55.045Z,28.73
2017-06-20T08:56:23.401Z,28.89
2017-06-20T08:58:52.672Z,28.75
2017-06-20T09:01:21.017Z,28.73
2017-06-20T09:03:49.357Z,28.99
2017-06-20T09:06:17.681Z,28.95
2017-06-20T09:08:46.020Z,29.15
2017-06-20T09:11:14.346Z,28.83
2017-06-20T09:13:42.705Z,29.17
2017-06-20T09:16:11.048Z,29.34
2017-06-20T09:18:39.381Z,29.19
2017-06-20T09:21:07.704Z,29.86
2017-06-20T09:23:36.051Z,29.78
2017-06-20T09:26:04.365Z,30.19
2017-06-20T09:28:32.704Z,30.56
2017-06-20T09:31:01.040Z,30.57
2017-06-20T09:33:29.374Z,31.02
2017-06-20T09:35:57.712Z,30.97
2017-06-20T09:38:26.100Z,31.27
2017-06-20T09:40:54.423Z,31.25
2017-06-20T09:43:25.588Z,31.20
2017-06-20T09:45:53.935Z,31.42
2017-06-20T09:48:22.287Z,31.42
2017-06-20T09:50:50.656Z,31.61
2017-06-20T09:53:19.050Z,31.85
2017-06-20T09:55:47.361Z,31.93
2017-06-20T09:58:15.722Z,31.56
2017-06-20T10:00:44.077Z,31.65
2017-06-20T10:03:12.417Z,31.55
2017-06-20T10:05:40.810Z,31.48
2017-06-20T10:08:09.141Z,31.76
2017-06-20T10:10:37.473Z,31.82
2017-06-20T10:13:05.816Z,32.12
2017-06-20T10:15:34.168Z,31.87
2017-06-20T10:18:02.507Z,32.19
2017-06-20T10:20:30.818Z,32.38
2017-06-20T10:22:59.168Z,31.96
2017-06-20T10:25:27.517Z,32.17
2017-06-20T10:27:55.860Z,31.89
2017-06-20T10:30:24.253Z,31.91
2017-06-20T10:32:52.597Z,32.42
2017-06-20T10:35:20.999Z,32.43
2017-06-20T10:37:49.327Z,32.64
2017-06-20T10:40:17.731Z,32.56
2017-06-20T10:42:46.052Z,32.50
2017-06-20T10:45:14.575Z,32.51
2017-06-20T10:47:42.913Z,32.78
2017-06-20T10:50:11.299Z,32.54
2017-06-20T10:52:40.278Z,32.51
2017-06-20T10:55:08.668Z,32.22
2017-06-20T10:57:37.010Z,32.09
2017-06-20T11:00:05.387Z,32.18
2017-06-20T11:02:33.743Z,32.14
2017-06-20T11:05:02.290Z,31.89
2017-06-20T11:07:30.633Z,31.80
2017-06-20T11:09:58.986Z,31.64
2017-06-20T11:12:27.325Z,32.05
2017-06-20T11:14:55.674Z,32.35
2017-06-20T11:17:24.016Z,32.55
2017-06-20T11:19:52.362Z,32.34
2017-06-20T11:22:20.698Z,32.43
2017-06-20T11:24:49.038Z,32.53
2017-06-20T11:27:17.370Z,32.39
2017-06-20T11:29:45.693Z,32.64
2017-06-20T11:32:14.117Z,32.43
2017-06-20T11:34:42.430Z,32.96
2017-06-20T11:37:10.797Z,32.58
2017-06-20T11:39:39.122Z,32.52
2017-06-20T11:42:07.452Z,32.78
2017-06-20T11:44:35.793Z,32.80
2017-06-20T11:47:04.150Z,33.09
2017-06-20T11:49:32.469Z,32.71
2017-06-20T11:52:00.810Z,32.86
2017-06-20T11:54:29.158Z,32.52
2017-06-20T11:56:57.507Z,33.09
2017-06-20T11:59:25.825Z,33.60
2017-06-20T12:01:54.163Z,33.42
2017-06-20T12:04:22.537Z,33.15
2017-06-20T12:06:50.861Z,33.09
2017-06-20T12:09:19.189Z,33.13
2017-06-20T12:11:47.549Z,33.00
2017-06-20T12:14:15.882Z,33.01
2017-06-20T12:16:44.243Z,33.04
2017-06-20T12:19:12.594Z,33.19
2017-06-20T12:21:40.939Z,33.83
2017-06-20T12:24:09.273Z,33.97
2017-06-20T12:26:37.635Z,34.11
2017-06-20T12:29:05.960Z,34.36
2017-06-20T12:31:34.386Z,34.77
2017-06-20T12:34:02.722Z,35.79
2017-06-20T12:36:31.157Z,36.36
2017-06-20T12:38:59.474Z,36.59
2017-06-20T12:41:27.801Z,36.78
2017-06-20T12:43:56.127Z,37.41
2017-06-20T12:46:24.476Z,37.57
2017-06-20T12:48:52.807Z,37.80
2017-06-20T12:51:21.133Z,38.09
2017-06-20T12:53:49.470Z,38.02
2017-06-20T12:56:17.803Z,39.33
2017-06-20T12:58:46.136Z,38.61
2017-06-20T13:01:14.484Z,38.51
2017-06-20T13:03:42.816Z,37.49
2017-06-20T13:06:11.162Z,37.91
2017-06-20T13:08:39.505Z,38.41
2017-06-20T13:11:07.843Z,38.88
2017-06-20T13:13:36.193Z,39.69
2017-06-20T13:16:04.516Z,38.02
2017-06-20T13:18:32.851Z,38.45
2017-06-20T13:21:01.199Z,38.69
2017-06-20T13:23:29.557Z,38.96
2017-06-20T13:25:57.977Z,39.12
2017-06-20T13:28:26.309Z,39.15
2017-06-20T13:30:54.679Z,40.14
2017-06-20T13:33:23.039Z,40.94
2017-06-20T13:35:51.381Z,41.19
2017-06-20T13:38:19.727Z,41.91
2017-06-20T13:40:48.049Z,40.85
2017-06-20T13:43:16.386Z,39.77
2017-06-20T13:45:44.746Z,39.09
2017-06-20T13:48:13.074Z,39.27
2017-06-20T13:50:41.409Z,39.50
2017-06-20T13:53:09.768Z,40.22
2017-06-20T13:55:38.127Z,40.05
2017-06-20T13:58:06.488Z,39.31
2017-06-20T14:00:34.824Z,39.30
2017-06-20T14:03:03.202Z,39.71
2017-06-20T14:05:31.567Z,39.86
2017-06-20T14:07:59.896Z,40.23
2017-06-20T14:10:28.692Z,40.88
2017-06-20T14:12:57.037Z,40.77
2017-06-20T14:15:25.378Z,41.72
2017-06-20T14:17:53.757Z,42.82
2017-06-20T14:20:22.180Z,41.79
2017-06-20T14:22:50.535Z,43.02
2017-06-20T14:25:18.955Z,41.65
2017-06-20T14:27:47.287Z,41.53
2017-06-20T14:30:15.666Z,41.01
2017-06-20T14:32:44.055Z,39.75
2017-06-20T14:35:12.399Z,39.89
2017-06-20T14:37:40.747Z,41.70
2017-06-20T14:40:09.101Z,41.48
2017-06-20T14:42:37.449Z,41.45
2017-06-20T14:45:05.859Z,40.92
2017-06-20T14:47:34.508Z,40.98
2017-06-20T14:50:02.888Z,40.93
2017-06-20T14:52:31.223Z,42.03
2017-06-20T14:54:59.574Z,42.13
2017-06-20T14:57:27.914Z,41.40
2017-06-20T14:59:56.438Z,41.90
2017-06-20T15:02:24.821Z,42.29
2017-06-20T15:04:53.187Z,42.20
2017-06-20T15:07:21.559Z,42.75
2017-06-20T15:09:49.894Z,42.31
2017-06-20T15:12:18.237Z,41.43
2017-06-20T15:14:46.582Z,41.54
2017-06-20T15:17:15.737Z,42.14
2017-06-20T15:19:44.096Z,41.70
2017-06-20T15:22:12.414Z,41.70
2017-06-20T15:24:40.745Z,41.21
2017-06-20T15:27:09.097Z,40.86
2017-06-20T15:29:37.535Z,42.20
2017-06-20T15:32:06.005Z,41.70
2017-06-20T15:34:34.405Z,42.48
2017-06-20T15:37:02.842Z,41.88
2017-06-20T15:39:31.197Z,41.69
2017-06-20T15:41:59.522Z,41.05
2017-06-20T15:44:27.881Z,40.54
2017-06-20T15:46:56.207Z,41.40
2017-06-20T15:49:24.570Z,41.86
2017-06-20T15:51:52.909Z,42.83
2017-06-20T15:54:21.462Z,42.69
2017-06-20T15:56:49.945Z,41.05
2017-06-20T15:59:18.296Z,43.03
2017-06-20T16:01:46.623Z,41.81
2017-06-20T16:04:14.999Z,41.75
2017-06-20T16:06:43.298Z,41.79
2017-06-20T16:09:11.655Z,40.76
2017-06-20T16:11:40.023Z,40.82
2017-06-20T16:14:08.416Z,39.66
2017-06-20T16:16:36.725Z,39.58
2017-06-20T16:19:05.102Z,40.06
2017-06-20T16:21:34.219Z,40.48
2017-06-20T16:24:02.714Z,39.93
2017-06-20T16:26:31.303Z,39.87
2017-06-20T16:28:59.845Z,40.10
2017-06-20T16:31:28.167Z,39.43
2017-06-20T16:33:56.501Z,40.15
2017-06-20T16:36:24.828Z,39.22
2017-06-20T16:38:53.154Z,38.61
2017-06-20T16:41:21.502Z,37.88
2017-06-20T16:43:49.817Z,38.45
2017-06-20T16:46:18.138Z,39.47
2017-06-20T16:48:46.510Z,39.22
2017-06-20T16:51:14.872Z,38.61
2017-06-20T16:53:43.205Z,39.36
2017-06-20T16:56:11.547Z,39.66
2017-06-20T16:58:39.892Z,40.12
2017-06-20T17:01:08.321Z,39.78
2017-06-20T17:03:36.674Z,40.20
2017-06-20T17:06:05.009Z,38.91
2017-06-20T17:08:33.348Z,38.36
2017-06-20T17:11:01.682Z,38.03
2017-06-20T17:13:30.021Z,38.15
2017-06-20T17:15:58.360Z,37.59
2017-06-20T17:18:26.716Z,37.85
2017-06-20T17:20:55.069Z,37.70
2017-06-20T17:23:23.409Z,38.49
2017-06-20T17:25:51.794Z,38.58
2017-06-20T17:28:20.193Z,38.54
2017-06-20T17:30:48.529Z,38.92
2017-06-20T17:33:16.937Z,38.82
2017-06-20T17:35:45.285Z,38.84
2017-06-20T17:38:13.634Z,39.24
2017-06-20T17:40:42.018Z,38.70
2017-06-20T17:43:10.369Z,38.35
2017-06-20T17:45:38.705Z,38.92
2017-06-20T17:48:07.074Z,39.23
2017-06-20T17:50:35.492Z,38.61
2017-06-20T17:53:03.885Z,37.68
2017-06-20T17:55:32.282Z,37.98
2017-06-20T17:58:00.634Z,37.89
2017-06-20T18:00:29.017Z,38.11
2017-06-20T18:02:57.389Z,37.98
2017-06-20T18:05:25.752Z,37.66
2017-06-20T18:07:54.103Z,38.00
2017-06-20T18:10:22.530Z,37.13
2017-06-20T18:12:50.855Z,37.18
2017-06-20T18:15:19.262Z,36.47
2017-06-20T18:17:47.583Z,35.84
2017-06-20T18:20:15.938Z,35.21
2017-06-20T18:22:44.302Z,34.72
2017-06-20T18:25:12.769Z,34.40
2017-06-20T18:27:41.125Z,34.07
2017-06-20T18:30:09.512Z,33.56
2017-06-20T18:32:37.831Z,33.10
2017-06-20T18:35:06.192Z,32.57
2017-06-20T18:37:34.552Z,31.93
2017-06-20T18:40:02.977Z,31.01
2017-06-20T18:42:31.330Z,30.49
2017-06-20T18:44:59.666Z,29.90
2017-06-20T18:47:28.055Z,29.54
2017-06-20T18:49:56.394Z,29.14
2017-06-20T18:52:24.731Z,28.81
2017-06-20T18:54:53.158Z,28.64
2017-06-20T18:57:21.474Z,28.28
2017-06-20T18:59:49.831Z,28.04
2017-06-20T19:02:18.156Z,27.83
2017-06-20T19:04:46.500Z,27.50
2017-06-20T19:07:14.853Z,27.15
2017-06-20T19:09:43.214Z,26.98
2017-06-20T19:12:11.621Z,26.82
2017-06-20T19:14:40.103Z,26.61
2017-06-20T19:17:08.453Z,26.38
2017-06-20T19:19:36.793Z,26.23
2017-06-20T19:22:05.355Z,26.04
2017-06-20T19:24:33.695Z,25.86
2017-06-20T19:27:02.053Z,25.72
2017-06-20T19:29:30.373Z,25.49
2017-06-20T19:31:58.721Z,25.33
2017-06-20T19:34:27.254Z,25.12
2017-06-20T19:36:55.593Z,25.14
2017-06-20T19:39:23.918Z,24.97
2017-06-20T19:41:52.277Z,24.79
2017-06-20T19:44:20.613Z,24.69
2017-06-20T19:46:48.978Z,24.58
2017-06-20T19:49:17.307Z,24.40
2017-06-20T19:51:45.674Z,24.28
2017-06-20T19:54:14.014Z,24.19
2017-06-20T19:56:42.373Z,24.12
2017-06-20T19:59:10.711Z,24.02
2017-06-20T20:01:39.365Z,23.87
2017-06-20T20:04:07.847Z,23.81
2017-06-20T20:06:36.185Z,23.66
2017-06-20T20:09:04.598Z,23.71
2017-06-20T20:11:32.978Z,23.62
2017-06-20T20:14:01.321Z,23.53
2017-06-20T20:16:29.679Z,23.47
2017-06-20T20:18:58.056Z,23.49
2017-06-20T20:21:26.414Z,23.42
2017-06-20T20:23:54.749Z,23.35
2017-06-20T20:26:23.117Z,23.26
2017-06-20T20:28:51.566Z,23.20
2017-06-20T20:31:19.894Z,23.13
2017-06-20T20:33:48.257Z,23.05
2017-06-20T20:36:16.842Z,22.99
2017-06-20T20:38:45.205Z,22.92
2017-06-20T20:41:13.561Z,22.84
2017-06-20T20:43:41.935Z,22.81
2017-06-20T20:46:11.222Z,22.82
2017-06-20T20:48:39.569Z,22.77
2017-06-20T20:51:07.922Z,22.72
2017-06-20T20:53:37.086Z,22.46
2017-06-20T20:56:05.467Z,22.33
2017-06-20T20:58:33.833Z,22.33
2017-06-20T21:01:04.290Z,22.30
2017-06-20T21:03:33.039Z,22.27
2017-06-20T21:06:01.365Z,22.23
2017-06-20T21:08:29.746Z,22.12
2017-06-20T21:10:58.095Z,22.01
2017-06-20T21:13:26.449Z,22.00
2017-06-20T21:15:55.042Z,21.98
2017-06-20T21:18:23.377Z,21.94
2017-06-20T21:20:51.725Z,22.02
2017-06-20T21:23:20.099Z,22.04
2017-06-20T21:25:48.453Z,22.05
2017-06-20T21:28:16.778Z,22.05
2017-06-20T21:30:45.213Z,22.10
2017-06-20T21:33:13.557Z,21.98
2017-06-20T21:35:41.945Z,21.93
2017-06-20T21:38:10.281Z,21.91
2017-06-20T21:40:38.618Z,21.85
2017-06-20T21:43:06.956Z,21.78
2017-06-20T21:45:35.299Z,21.75
2017-06-20T21:48:04.082Z,21.79
2017-06-20T21:50:32.449Z,21.92
2017-06-20T21:53:00.795Z,21.81
2017-06-20T21:55:29.125Z,21.88
2017-06-20T21:57:57.482Z,21.77
2017-06-20T22:00:25.805Z,21.56
2017-06-20T22:02:54.167Z,21.40
2017-06-20T22:05:22.635Z,21.27
2017-06-20T22:07:51.415Z,21.13
2017-06-20T22:10:19.828Z,21.05
2017-06-20T22:12:48.233Z,21.01
2017-06-20T22:15:16.620Z,20.84
2017-06-20T22:17:45.011Z,20.78
2017-06-20T22:20:13.384Z,20.75
2017-06-20T22:22:41.728Z,20.75
2017-06-20T22:25:10.136Z,20.78
2017-06-20T22:27:38.450Z,20.96
2017-06-20T22:30:06.848Z,20.98
2017-06-20T22:32:35.206Z,20.90
2017-06-20T22:35:03.603Z,20.83
2017-06-20T22:37:31.964Z,20.77
2017-06-20T22:40:00.382Z,20.73
2017-06-20T22:42:28.749Z,20.65
2017-06-20T22:44:57.073Z,20.71
2017-06-20T22:47:25.408Z,20.77
2017-06-20T22:49:53.760Z,20.53
2017-06-20T22:52:22.106Z,20.51
2017-06-20T22:54:51.360Z,20.44
2017-06-20T22:57:19.681Z,20.38
2017-06-20T22:59:48.116Z,20.50
2017-06-20T23:02:16.457Z,20.41
2017-06-20T23:04:44.807Z,20.47
2017-06-20T23:07:13.126Z,20.42
2017-06-20T23:09:41.457Z,20.43
2017-06-20T23:12:09.790Z,20.35
2017-06-20T23:14:38.141Z,20.42
2017-06-20T23:17:06.463Z,20.27
2017-06-20T23:19:34.821Z,20.20
2017-06-20T23:22:03.163Z,20.42
2017-06-20T23:24:31.502Z,20.13
2017-06-20T23:26:59.950Z,20.04
2017-06-20T23:29:28.317Z,20.05
2017-06-20T23:31:56.656Z,19.99
2017-06-20T23:34:25.052Z,20.17
2017-06-20T23:36:53.406Z,20.17
2017-06-20T23:39:21.769Z,20.13
2017-06-20T23:41:50.089Z,19.92
2017-06-20T23:44:18.442Z,19.76
2017-06-20T23:46:46.922Z,19.71
2017-06-20T23:49:15.268Z,19.76
2017-06-20T23:51:43.628Z,19.66
2017-06-20T23:54:11.962Z,19.68
2017-06-20T23:56:40.305Z,19.62
2017-06-20T23:59:08.674Z,19.50
